createdAt,value
2019-01-19T08:48:51.705Z,21.34
2019-01-19T08:51:20.858Z,21.74
2019-01-19T08:53:49.907Z,21.95
2019-01-19T08:56:19.601Z,22.06
2019-01-19T08:58:48.162Z,22.17
2019-01-19T09:01:16.542Z,22.40
2019-01-19T09:03:44.701Z,22.34
2019-01-19T09:06:12.725Z,22.30
2019-01-19T09:08:41.113Z,22.28
2019-01-19T09:11:09.169Z,22.41
2019-01-19T09:13:37.525Z,22.39
2019-01-19T09:16:23.975Z,22.37
2019-01-19T09:18:52.008Z,22.35
2019-01-19T09:21:20.031Z,22.39
2019-01-19T09:23:58.139Z,22.37
2019-01-19T09:26:26.393Z,22.38
2019-01-19T09:28:54.512Z,22.41
2019-01-19T09:31:22.574Z,22.39
2019-01-19T09:33:50.601Z,22.36
2019-01-19T09:36:19.064Z,22.36
2019-01-19T09:38:47.654Z,22.37
2019-01-19T09:41:16.022Z,22.39
2019-01-19T09:43:44.150Z,22.38
2019-01-19T09:46:12.233Z,22.36
2019-01-19T09:48:40.884Z,22.38
2019-01-19T09:51:08.930Z,22.39
2019-01-19T09:53:37.331Z,22.36
2019-01-19T09:56:05.507Z,22.33
2019-01-19T09:58:34.171Z,22.34
2019-01-19T10:01:02.589Z,22.31
2019-01-19T10:03:30.949Z,22.32
2019-01-19T10:05:58.945Z,22.33
2019-01-19T10:08:26.996Z,22.35
2019-01-19T10:10:55.270Z,22.35
2019-01-19T10:13:23.522Z,22.35
2019-01-19T10:15:51.805Z,22.33
2019-01-19T10:18:20.031Z,22.36
2019-01-19T10:20:48.068Z,22.36
2019-01-19T10:23:16.543Z,22.35
2019-01-19T10:25:45.768Z,22.28
2019-01-19T10:28:14.118Z,22.37
2019-01-19T10:30:42.385Z,22.40
2019-01-19T10:33:10.520Z,22.42
2019-01-19T10:35:39.462Z,22.42
2019-01-19T10:38:07.601Z,22.44
2019-01-19T10:40:35.877Z,22.45
2019-01-19T10:43:04.235Z,22.42
2019-01-19T10:45:32.253Z,22.42
2019-01-19T10:48:00.653Z,22.42
2019-01-19T10:50:29.350Z,22.44
2019-01-19T10:52:57.629Z,22.43
2019-01-19T10:55:25.690Z,22.43
2019-01-19T10:57:54.588Z,22.43
2019-01-19T11:00:23.833Z,22.41
2019-01-19T11:02:51.837Z,22.45
2019-01-19T11:05:20.241Z,22.42
2019-01-19T11:07:49.089Z,22.42
2019-01-19T11:10:18.495Z,22.38
2019-01-19T11:12:46.793Z,22.39
2019-01-19T11:15:15.613Z,22.37
2019-01-19T11:17:43.976Z,22.36
2019-01-19T11:20:14.093Z,22.35
2019-01-19T11:22:42.597Z,22.36
2019-01-19T11:25:11.318Z,22.34
2019-01-19T11:27:39.477Z,22.36
2019-01-19T11:30:10.319Z,22.33
2019-01-19T11:32:44.394Z,22.46
2019-01-19T11:35:08.897Z,22.52
2019-01-19T11:37:37.012Z,22.49
2019-01-19T11:40:07.076Z,22.48
2019-01-19T11:42:35.229Z,22.50
2019-01-19T11:45:03.285Z,22.49
2019-01-19T11:47:31.321Z,22.46
2019-01-19T11:49:59.728Z,22.45
2019-01-19T11:52:27.717Z,22.48
2019-01-19T11:54:56.170Z,22.38
2019-01-19T11:57:24.532Z,22.56
2019-01-19T11:59:53.189Z,22.54
2019-01-19T12:02:21.563Z,22.53
2019-01-19T12:04:49.941Z,22.55
2019-01-19T12:07:18.499Z,22.46
2019-01-19T12:09:47.213Z,22.43
2019-01-19T12:12:15.241Z,22.43
2019-01-19T12:14:43.580Z,22.40
2019-01-19T12:17:12.259Z,22.40
2019-01-19T12:19:40.404Z,22.38
2019-01-19T12:22:08.458Z,22.36
2019-01-19T12:24:36.595Z,22.36
2019-01-19T12:27:04.996Z,22.36
2019-01-19T12:29:33.334Z,22.38
2019-01-19T12:32:01.346Z,22.39
2019-01-19T12:34:29.787Z,22.41
2019-01-19T12:36:58.734Z,22.37
2019-01-19T12:39:26.809Z,22.38
2019-01-19T12:41:55.130Z,22.40
2019-01-19T12:44:23.817Z,22.40
2019-01-19T12:46:52.136Z,22.39
2019-01-19T12:49:20.161Z,22.41
2019-01-19T12:51:48.528Z,22.44
2019-01-19T12:54:16.537Z,22.49
2019-01-19T12:56:44.964Z,22.62
2019-01-19T12:59:12.975Z,22.70
2019-01-19T13:01:41.098Z,22.76
2019-01-19T13:04:09.098Z,22.79
2019-01-19T13:06:39.601Z,22.85
